createdAt,value
2023-01-11T00:00:35.281Z,97.36
2023-01-11T00:03:04.667Z,97.78
2023-01-11T00:05:32.346Z,98.68
2023-01-11T00:08:00.176Z,98.50
2023-01-11T00:10:29.376Z,98.69
2023-01-11T00:12:56.915Z,98.30
2023-01-11T00:15:24.457Z,97.49
2023-01-11T00:17:52.359Z,96.81
2023-01-11T00:20:19.859Z,97.19
2023-01-11T00:22:47.427Z,96.12
2023-01-11T00:25:15.213Z,96.27
2023-01-11T00:27:42.691Z,96.78
2023-01-11T00:30:10.911Z,97.08
2023-01-11T00:32:38.763Z,97.38
2023-01-11T00:35:06.803Z,96.95
2023-01-11T00:37:34.543Z,96.61
2023-01-11T00:40:02.439Z,97.59
2023-01-11T00:42:48.351Z,97.59
2023-01-11T00:45:34.824Z,97.55
2023-01-11T00:48:05.496Z,97.15
2023-01-11T00:50:38.064Z,97.17
2023-01-11T00:53:06.638Z,97.36
2023-01-11T00:55:34.628Z,97.34
2023-01-11T00:58:02.796Z,97.29
2023-01-11T01:00:30.468Z,97.20
2023-01-11T01:02:58.329Z,97.44
2023-01-11T01:05:25.914Z,96.11
2023-01-11T01:07:53.487Z,96.28
2023-01-11T01:10:21.477Z,95.80
2023-01-11T01:13:07.136Z,96.44
2023-01-11T01:15:35.207Z,95.88
2023-01-11T01:18:02.824Z,96.62
2023-01-11T01:20:30.300Z,95.58
2023-01-11T01:22:58.128Z,95.28
2023-01-11T01:25:25.743Z,95.05
2023-01-11T01:27:53.220Z,95.08
2023-01-11T01:30:21.015Z,94.44
2023-01-11T01:32:48.508Z,95.02
2023-01-11T01:35:16.038Z,94.87
2023-01-11T01:37:44.850Z,94.62
2023-01-11T01:40:12.814Z,94.50
2023-01-11T01:42:40.286Z,94.05
2023-01-11T01:45:20.180Z,93.99
2023-01-11T01:47:52.663Z,94.29
2023-01-11T01:50:26.655Z,94.47
2023-01-11T01:52:57.714Z,94.83
2023-01-11T01:55:29.829Z,94.50
2023-01-11T01:57:58.727Z,94.06
2023-01-11T02:00:26.565Z,93.70
2023-01-11T02:02:55.965Z,94.10
2023-01-11T02:05:23.912Z,94.25
2023-01-11T02:07:52.117Z,94.54
2023-01-11T02:10:21.330Z,93.83
2023-01-11T02:13:00.945Z,93.47
2023-01-11T02:15:29.268Z,93.71
2023-01-11T02:17:57.054Z,91.93
2023-01-11T02:20:35.525Z,92.26
2023-01-11T02:23:27.517Z,92.79
2023-01-11T02:26:13.254Z,92.72
2023-01-11T02:29:06.911Z,92.64
2023-01-11T02:31:46.173Z,92.68
2023-01-11T02:34:19.710Z,92.76
2023-01-11T02:37:11.294Z,92.58
2023-01-11T02:40:04.240Z,92.59
2023-01-11T02:43:08.906Z,92.84
2023-01-11T02:45:59.929Z,92.27
2023-01-11T02:48:35.212Z,92.24
2023-01-11T02:51:11.209Z,92.15
2023-01-11T02:53:45.850Z,91.81
2023-01-11T02:56:20.187Z,92.09
2023-01-11T02:58:51.155Z,92.33
2023-01-11T03:01:22.650Z,91.99
2023-01-11T03:03:50.515Z,92.27
2023-01-11T03:06:23.112Z,91.53
2023-01-11T03:09:08.108Z,92.10
2023-01-11T03:12:14.583Z,92.45
2023-01-11T03:15:14.805Z,92.48
2023-01-11T03:18:28.314Z,92.57
2023-01-11T03:21:25.332Z,93.05
2023-01-11T03:23:58.946Z,92.99
2023-01-11T03:26:37.954Z,93.44
2023-01-11T03:29:20.902Z,94.04
2023-01-11T03:32:07.242Z,93.06
2023-01-11T03:34:40.469Z,94.21
2023-01-11T03:37:12.807Z,93.83
2023-01-11T03:39:42.978Z,94.20
2023-01-11T03:42:13.529Z,94.20
2023-01-11T03:44:44.056Z,93.82
2023-01-11T03:47:13.853Z,94.69
2023-01-11T03:49:57.408Z,93.95
2023-01-11T03:52:30.847Z,94.23
2023-01-11T03:54:59.510Z,94.32
2023-01-11T03:57:36.427Z,94.30
2023-01-11T04:00:05.622Z,94.52
2023-01-11T04:02:40.959Z,94.46
2023-01-11T04:05:10.209Z,94.16
2023-01-11T04:07:38.125Z,94.06
2023-01-11T04:10:06.211Z,94.26
2023-01-11T04:12:33.888Z,94.11
2023-01-11T04:15:03.221Z,94.46
2023-01-11T04:17:31.559Z,94.72
2023-01-11T04:19:59.198Z,94.41
2023-01-11T04:22:26.993Z,93.80
2023-01-11T04:24:54.492Z,93.38
2023-01-11T04:27:21.953Z,93.47
2023-01-11T04:29:49.850Z,93.97
2023-01-11T04:32:17.685Z,94.22
2023-01-11T04:34:45.528Z,94.61
2023-01-11T04:37:13.309Z,94.02
2023-01-11T04:39:40.837Z,94.69
2023-01-11T04:42:18.488Z,94.46
2023-01-11T04:44:48.756Z,95.17
2023-01-11T04:47:16.887Z,93.86
2023-01-11T04:49:46.298Z,94.51
2023-01-11T04:52:15.788Z,95.49
2023-01-11T04:54:44.180Z,95.85
2023-01-11T04:57:13.588Z,96.23
2023-01-11T04:59:41.733Z,96.87
2023-01-11T05:02:09.373Z,96.93
2023-01-11T05:04:36.944Z,97.18
2023-01-11T05:07:04.802Z,97.69
2023-01-11T05:09:32.322Z,98.39
2023-01-11T05:11:59.853Z,99.02
2023-01-11T05:14:27.756Z,98.90
2023-01-11T05:16:55.270Z,98.97
2023-01-11T05:19:22.806Z,99.13
2023-01-11T05:21:50.724Z,99.80
2023-01-11T05:24:18.524Z,99.21
2023-01-11T05:26:46.384Z,99.34
2023-01-11T05:29:20.484Z,99.73
2023-01-11T05:31:48.522Z,99.19
2023-01-11T05:34:17.491Z,99.20
2023-01-11T05:36:45.332Z,99.11
2023-01-11T05:39:13.838Z,99.40
2023-01-11T05:41:42.112Z,99.11
2023-01-11T05:44:31.472Z,99.52
2023-01-11T05:46:59.630Z,99.43
2023-01-11T05:49:27.282Z,99.80
2023-01-11T05:51:54.905Z,99.51
2023-01-11T05:54:22.695Z,99.91
2023-01-11T05:56:50.227Z,99.93
2023-01-11T05:59:17.841Z,99.51
2023-01-11T06:01:46.142Z,99.71
2023-01-11T06:04:14.571Z,100.00
2023-01-11T06:06:42.189Z,99.97
2023-01-11T06:09:09.817Z,100.00
2023-01-11T06:11:37.699Z,100.00
2023-01-11T06:14:05.322Z,100.00
2023-01-11T06:16:32.909Z,100.00
2023-01-11T06:19:01.053Z,100.00
2023-01-11T06:21:28.710Z,100.00
2023-01-11T06:23:56.294Z,100.00
2023-01-11T06:26:24.608Z,100.00
2023-01-11T06:28:52.709Z,100.00
2023-01-11T06:31:20.468Z,100.00
2023-01-11T06:33:48.513Z,100.00
2023-01-11T06:36:16.606Z,100.00
2023-01-11T06:38:44.632Z,100.00
2023-01-11T06:41:13.423Z,100.00
2023-01-11T06:43:42.145Z,100.00
2023-01-11T06:46:13.289Z,100.00
2023-01-11T06:48:41.207Z,100.00
2023-01-11T06:51:12.031Z,100.00
2023-01-11T06:53:41.307Z,100.00
2023-01-11T06:56:13.533Z,100.00
2023-01-11T06:58:41.298Z,100.00
2023-01-11T07:01:09.950Z,100.00
2023-01-11T07:03:39.320Z,100.00
2023-01-11T07:06:07.252Z,99.92
2023-01-11T07:08:35.100Z,100.00
2023-01-11T07:11:03.050Z,100.00
2023-01-11T07:13:30.718Z,99.76
2023-01-11T07:15:58.624Z,100.00
2023-01-11T07:18:27.181Z,100.00
2023-01-11T07:20:55.617Z,99.87
2023-01-11T07:23:23.456Z,99.86
2023-01-11T07:25:51.098Z,99.45
2023-01-11T07:28:18.742Z,99.25
2023-01-11T07:30:58.351Z,99.42
2023-01-11T07:33:26.940Z,99.18
2023-01-11T07:35:54.978Z,98.99
2023-01-11T07:38:22.848Z,99.03
2023-01-11T07:40:50.630Z,98.57
2023-01-11T07:43:20.067Z,98.67
2023-01-11T07:45:49.866Z,99.26
2023-01-11T07:48:25.324Z,98.85
2023-01-11T07:50:53.571Z,98.47
2023-01-11T07:53:21.885Z,98.15
2023-01-11T07:55:49.511Z,98.11
2023-01-11T07:58:17.130Z,97.60
2023-01-11T08:00:46.157Z,98.18
2023-01-11T08:03:14.413Z,97.98
2023-01-11T08:05:42.477Z,97.94
2023-01-11T08:08:10.464Z,97.75
2023-01-11T08:10:41.129Z,97.51
2023-01-11T08:13:31.473Z,96.96
2023-01-11T08:16:00.102Z,97.29
2023-01-11T08:18:27.804Z,95.88
2023-01-11T08:20:55.512Z,95.92
2023-01-11T08:23:23.582Z,94.96
2023-01-11T08:25:56.589Z,95.12
2023-01-11T08:28:24.748Z,94.24
2023-01-11T08:30:52.507Z,93.65
2023-01-11T08:33:20.041Z,93.91
2023-01-11T08:35:48.044Z,94.80
2023-01-11T08:38:15.607Z,94.91
2023-01-11T08:40:43.222Z,95.01
2023-01-11T08:43:11.130Z,93.68
2023-01-11T08:45:38.748Z,93.66
2023-01-11T08:48:06.907Z,93.61
2023-01-11T08:50:34.771Z,92.52
2023-01-11T08:53:02.444Z,92.62
2023-01-11T08:55:30.919Z,91.49
2023-01-11T08:57:58.737Z,92.23
2023-01-11T09:00:26.422Z,91.64
2023-01-11T09:02:54.141Z,91.25
2023-01-11T09:05:22.437Z,90.25
2023-01-11T09:07:50.046Z,90.79
2023-01-11T09:10:17.819Z,91.34
2023-01-11T09:12:45.762Z,91.08
2023-01-11T09:15:13.624Z,90.30
2023-01-11T09:17:41.110Z,90.36
2023-01-11T09:20:12.047Z,89.86
2023-01-11T09:22:39.849Z,90.23
2023-01-11T09:25:08.467Z,90.01
2023-01-11T09:27:36.355Z,89.73
2023-01-11T09:30:05.616Z,89.84
2023-01-11T09:32:35.812Z,89.29
2023-01-11T09:35:04.811Z,88.99
2023-01-11T09:37:32.738Z,89.25
2023-01-11T09:40:01.623Z,89.27
2023-01-11T09:42:39.782Z,89.64
2023-01-11T09:45:18.474Z,89.19
2023-01-11T09:48:12.629Z,88.30
2023-01-11T09:50:43.545Z,88.10
2023-01-11T09:53:27.246Z,88.52
2023-01-11T09:55:58.165Z,89.06
2023-01-11T09:58:51.167Z,88.54
2023-01-11T10:01:30.003Z,87.00
2023-01-11T10:04:21.958Z,86.90
2023-01-11T10:07:34.816Z,87.23
2023-01-11T10:18:32.892Z,86.33
2023-01-11T10:19:45.362Z,86.35
2023-01-11T10:22:24.866Z,85.51
2023-01-11T10:25:21.956Z,85.66
2023-01-11T10:27:56.864Z,86.45
2023-01-11T10:31:08.390Z,85.89
2023-01-11T10:33:58.268Z,85.94
2023-01-11T10:36:38.250Z,84.54
2023-01-11T10:39:23.822Z,84.21
2023-01-11T10:42:01.520Z,83.99
2023-01-11T10:44:48.723Z,83.15
2023-01-11T10:47:20.332Z,83.65
2023-01-11T10:49:56.058Z,82.74
2023-01-11T10:52:41.671Z,83.34
2023-01-11T10:55:16.009Z,82.74
2023-01-11T10:58:06.992Z,82.41
2023-01-11T11:00:48.743Z,82.28
2023-01-11T11:03:25.841Z,81.37
2023-01-11T11:05:59.743Z,81.70
2023-01-11T11:08:53.791Z,83.72
2023-01-11T11:11:38.520Z,81.98
2023-01-11T11:14:19.862Z,82.20
2023-01-11T11:16:53.740Z,82.58
2023-01-11T11:19:25.797Z,83.58
2023-01-11T11:21:53.928Z,81.45
2023-01-11T11:24:33.225Z,83.04
2023-01-11T11:27:22.594Z,82.41
2023-01-11T11:29:55.821Z,83.18
2023-01-11T11:32:27.930Z,83.16
2023-01-11T11:34:55.790Z,83.26
2023-01-11T11:37:32.408Z,81.98
2023-01-11T11:40:00.444Z,82.22
2023-01-11T11:42:28.529Z,81.67
2023-01-11T11:45:17.953Z,82.22
2023-01-11T11:48:03.557Z,82.17
2023-01-11T11:50:44.346Z,81.27
2023-01-11T11:53:44.224Z,81.12
2023-01-11T11:56:16.068Z,81.87
2023-01-11T11:58:44.719Z,82.02
2023-01-11T12:01:33.060Z,82.45
2023-01-11T12:07:20.584Z,81.61
2023-01-11T12:09:55.108Z,82.62
2023-01-11T12:12:25.924Z,82.42
2023-01-11T12:15:23.886Z,81.95
2023-01-11T12:17:52.350Z,82.97
2023-01-11T12:20:24.016Z,81.53
2023-01-11T12:23:21.837Z,82.09
2023-01-11T12:26:20.165Z,81.71
2023-01-11T12:29:24.859Z,81.88
2023-01-11T12:32:28.427Z,83.07
2023-01-11T12:34:59.895Z,82.59
2023-01-11T12:37:53.423Z,82.43
2023-01-11T12:40:32.163Z,83.24
2023-01-11T12:43:10.866Z,81.74
2023-01-11T12:45:55.244Z,81.92
2023-01-11T12:48:50.373Z,81.74
2023-01-11T12:51:41.300Z,82.40
2023-01-11T12:54:34.463Z,82.61
2023-01-11T12:58:03.457Z,82.34
2023-01-11T13:01:37.438Z,81.81
2023-01-11T13:08:38.787Z,81.79
2023-01-11T13:19:30.528Z,82.27
2023-01-11T13:22:24.515Z,82.40
2023-01-11T13:25:46.659Z,82.91
2023-01-11T13:29:13.669Z,82.48
2023-01-11T13:31:42.477Z,82.81
2023-01-11T13:34:34.036Z,82.62
2023-01-11T13:37:20.472Z,82.39
2023-01-11T13:40:03.690Z,82.63
2023-01-11T13:42:38.176Z,83.29
2023-01-11T13:45:19.013Z,82.36
2023-01-11T13:47:49.844Z,82.25
2023-01-11T13:50:31.346Z,82.05
2023-01-11T13:53:10.165Z,82.12
2023-01-11T13:55:56.987Z,83.12
2023-01-11T13:58:32.484Z,82.57
2023-01-11T14:01:00.450Z,83.15
2023-01-11T14:03:32.364Z,82.39
2023-01-11T14:06:31.350Z,82.58
2023-01-11T14:09:31.791Z,82.65
2023-01-11T14:12:09.969Z,82.88
2023-01-11T14:14:56.209Z,82.86
2023-01-11T14:17:45.072Z,82.73
2023-01-11T14:20:36.855Z,82.06
2023-01-11T14:23:12.083Z,81.58
2023-01-11T14:25:58.736Z,82.88
2023-01-11T14:28:54.407Z,82.59
2023-01-11T14:31:53.627Z,83.36
2023-01-11T14:34:36.377Z,82.64
2023-01-11T14:37:23.762Z,82.95
2023-01-11T14:39:58.383Z,82.87
2023-01-11T14:42:52.768Z,83.30
2023-01-11T14:45:27.521Z,83.90
2023-01-11T14:48:36.108Z,84.10
2023-01-11T14:51:18.865Z,84.40
2023-01-11T14:53:52.682Z,84.68
2023-01-11T14:56:42.186Z,85.02
2023-01-11T14:59:24.848Z,86.05
2023-01-11T15:02:05.000Z,86.27
2023-01-11T15:04:38.176Z,87.10
2023-01-11T15:07:31.663Z,87.12
2023-01-11T15:10:04.608Z,87.18
2023-01-11T15:12:34.322Z,87.44
2023-01-11T15:15:11.520Z,87.41
2023-01-11T15:17:58.321Z,87.63
2023-01-11T15:20:26.795Z,87.39
2023-01-11T15:22:56.668Z,87.74
2023-01-11T15:25:25.821Z,88.12
2023-01-11T15:27:54.597Z,88.36
2023-01-11T15:30:31.134Z,88.50
2023-01-11T15:33:17.163Z,88.52
2023-01-11T15:36:03.763Z,88.94
2023-01-11T15:38:45.354Z,88.83
2023-01-11T15:41:35.647Z,89.06
2023-01-11T15:44:25.279Z,89.62
2023-01-11T15:47:07.275Z,89.88
2023-01-11T15:49:58.461Z,89.97
2023-01-11T15:52:53.981Z,90.01
2023-01-11T15:55:40.092Z,90.95
2023-01-11T15:58:44.900Z,91.17
2023-01-11T16:01:22.489Z,91.03
2023-01-11T16:04:23.790Z,91.08
2023-01-11T16:06:53.102Z,91.03
2023-01-11T16:09:42.731Z,91.18
2023-01-11T16:12:47.849Z,91.46
2023-01-11T16:15:31.231Z,91.88
2023-01-11T16:18:11.053Z,91.90
2023-01-11T16:20:40.343Z,91.90
2023-01-11T16:23:08.179Z,91.97
2023-01-11T16:25:38.532Z,92.52
2023-01-11T16:28:07.717Z,92.81
2023-01-11T16:30:35.328Z,92.69
2023-01-11T16:33:14.687Z,93.34
2023-01-11T16:35:42.964Z,93.72
2023-01-11T16:38:17.755Z,94.15
2023-01-11T16:40:49.050Z,94.70
2023-01-11T16:43:29.185Z,94.96
2023-01-11T16:45:57.178Z,94.71
2023-01-11T16:48:29.626Z,95.21
2023-01-11T16:51:03.877Z,95.77
2023-01-11T16:53:40.187Z,95.17
2023-01-11T16:56:15.446Z,95.28
2023-01-11T16:58:43.524Z,95.85
2023-01-11T17:01:13.816Z,95.19
2023-01-11T17:03:52.055Z,95.65
2023-01-11T17:06:22.819Z,95.46
2023-01-11T17:08:52.268Z,95.88
2023-01-11T17:11:27.671Z,96.05
2023-01-11T17:14:37.279Z,96.57
2023-01-11T17:17:07.390Z,96.77
2023-01-11T17:19:46.117Z,96.95
2023-01-11T17:22:22.026Z,96.99
2023-01-11T17:25:06.192Z,97.30
2023-01-11T17:27:40.627Z,97.05
2023-01-11T17:30:17.963Z,97.10
2023-01-11T17:32:48.254Z,96.97
2023-01-11T17:35:18.438Z,97.17
2023-01-11T17:37:49.018Z,97.72
2023-01-11T17:40:31.873Z,97.85
2023-01-11T17:43:30.326Z,97.99
2023-01-11T17:45:58.854Z,98.10
2023-01-11T17:48:27.542Z,99.55
2023-01-11T17:50:59.823Z,99.83
2023-01-11T17:53:32.492Z,100.00
2023-01-11T17:56:01.150Z,100.00
2023-01-11T17:58:30.539Z,100.00
2023-01-11T18:01:09.872Z,99.93
2023-01-11T18:03:50.677Z,99.83
2023-01-11T18:06:41.871Z,99.89
2023-01-11T18:09:22.617Z,99.59
2023-01-11T18:11:51.347Z,99.55
2023-01-11T18:14:27.993Z,99.41
2023-01-11T18:17:03.798Z,99.01
2023-01-11T18:19:31.903Z,98.90
2023-01-11T18:21:59.491Z,98.98
2023-01-11T18:24:33.514Z,98.90
2023-01-11T18:27:16.352Z,99.40
2023-01-11T18:29:48.097Z,99.62
2023-01-11T18:32:16.267Z,99.53
2023-01-11T18:34:46.570Z,99.45
2023-01-11T18:37:14.202Z,99.37
2023-01-11T18:39:42.864Z,99.18
2023-01-11T18:42:15.818Z,99.48
2023-01-11T18:44:46.849Z,99.31
2023-01-11T18:47:26.651Z,99.17
2023-01-11T18:49:54.657Z,99.75
2023-01-11T18:52:27.806Z,99.42
2023-01-11T18:54:56.563Z,98.94
2023-01-11T18:57:24.655Z,98.74
2023-01-11T18:59:57.124Z,98.58
2023-01-11T19:02:30.615Z,98.38
2023-01-11T19:04:58.612Z,97.89
2023-01-11T19:07:26.863Z,97.69
2023-01-11T19:09:55.089Z,97.27
2023-01-11T19:12:23.780Z,97.06
2023-01-11T19:14:51.820Z,96.93
2023-01-11T19:17:19.430Z,96.74
2023-01-11T19:19:47.914Z,96.66
2023-01-11T19:22:15.855Z,96.67
2023-01-11T19:24:43.285Z,96.66
2023-01-11T19:27:13.638Z,96.64
2023-01-11T19:29:42.718Z,96.65
2023-01-11T19:32:10.324Z,96.72
2023-01-11T19:34:39.789Z,96.65
2023-01-11T19:37:07.908Z,96.61
2023-01-11T19:39:36.888Z,96.75
2023-01-11T19:42:05.047Z,97.91
2023-01-11T19:44:34.852Z,97.38
2023-01-11T19:47:11.529Z,97.51
2023-01-11T19:49:41.910Z,97.38
2023-01-11T19:52:18.851Z,97.48
2023-01-11T19:54:47.087Z,97.68
2023-01-11T19:57:18.752Z,97.84
2023-01-11T19:59:47.186Z,97.44
2023-01-11T20:02:17.070Z,97.25
2023-01-11T20:04:45.000Z,97.71
2023-01-11T20:07:13.545Z,97.51
2023-01-11T20:09:41.395Z,97.38
2023-01-11T20:12:11.646Z,97.90
2023-01-11T20:14:40.542Z,97.81
2023-01-11T20:17:08.731Z,98.09
2023-01-11T20:19:36.976Z,97.92
2023-01-11T20:22:05.332Z,97.60
2023-01-11T20:24:33.095Z,97.95
2023-01-11T20:27:02.763Z,98.17
2023-01-11T20:29:30.844Z,98.30
2023-01-11T20:32:18.686Z,98.11
2023-01-11T20:34:46.617Z,97.69
2023-01-11T20:37:15.186Z,97.94
2023-01-11T20:39:42.841Z,98.19
2023-01-11T20:42:12.614Z,98.16
2023-01-11T20:44:40.421Z,98.06
2023-01-11T20:47:08.302Z,98.17
2023-01-11T20:49:36.173Z,98.36
2023-01-11T20:52:04.418Z,97.77
2023-01-11T20:54:32.202Z,97.95
2023-01-11T20:57:05.349Z,97.67
2023-01-11T20:59:32.929Z,97.84
2023-01-11T21:02:00.995Z,97.50
2023-01-11T21:04:28.785Z,97.71
2023-01-11T21:06:56.397Z,97.96
2023-01-11T21:09:24.207Z,97.91
2023-01-11T21:11:54.392Z,98.35
2023-01-11T21:14:22.499Z,98.67
2023-01-11T21:16:50.311Z,98.19
2023-01-11T21:19:18.506Z,97.99
2023-01-11T21:21:47.457Z,97.85
2023-01-11T21:24:16.983Z,97.92
2023-01-11T21:26:45.868Z,97.84
2023-01-11T21:29:13.867Z,98.58
2023-01-11T21:31:42.081Z,98.95
2023-01-11T21:34:13.129Z,99.27
2023-01-11T21:36:41.352Z,98.94
2023-01-11T21:39:13.078Z,98.81
2023-01-11T21:41:56.126Z,98.68
2023-01-11T21:44:28.075Z,98.44
2023-01-11T21:46:55.926Z,98.32
2023-01-11T21:49:24.420Z,98.19
2023-01-11T21:51:52.156Z,98.09
2023-01-11T21:54:20.243Z,98.16
2023-01-11T21:56:48.440Z,98.01
2023-01-11T21:59:16.258Z,98.09
2023-01-11T22:01:45.249Z,98.02
2023-01-11T22:04:16.150Z,98.15
2023-01-11T22:06:51.210Z,98.15
2023-01-11T22:09:20.348Z,98.07
2023-01-11T22:11:48.173Z,98.44
2023-01-11T22:14:15.771Z,98.72
2023-01-11T22:16:43.680Z,99.64
2023-01-11T22:19:11.382Z,100.00
2023-01-11T22:21:39.247Z,100.00
2023-01-11T22:24:10.361Z,99.64
2023-01-11T22:26:39.059Z,99.07
2023-01-11T22:29:17.670Z,98.66
2023-01-11T22:31:48.911Z,99.14
2023-01-11T22:34:17.547Z,99.27
2023-01-11T22:36:45.628Z,99.34
2023-01-11T22:39:14.383Z,98.51
2023-01-11T22:41:45.507Z,98.24
2023-01-11T22:44:13.861Z,98.23
2023-01-11T22:46:42.161Z,98.35
2023-01-11T22:49:10.673Z,98.43
2023-01-11T22:51:38.432Z,98.18
2023-01-11T22:54:06.137Z,97.99
2023-01-11T22:56:34.016Z,97.80
2023-01-11T22:59:02.587Z,97.73
2023-01-11T23:01:32.980Z,97.69
2023-01-11T23:04:01.302Z,98.15
2023-01-11T23:06:34.321Z,97.94
2023-01-11T23:09:02.612Z,97.62
2023-01-11T23:11:51.055Z,97.55
2023-01-11T23:14:19.760Z,97.43
2023-01-11T23:16:49.550Z,97.89
2023-01-11T23:19:19.813Z,98.03
2023-01-11T23:21:47.941Z,98.24
2023-01-11T23:24:16.662Z,98.20
2023-01-11T23:26:45.422Z,97.93
2023-01-11T23:29:13.456Z,98.10
2023-01-11T23:31:42.908Z,97.97
2023-01-11T23:34:11.919Z,97.75
2023-01-11T23:36:41.660Z,97.56
2023-01-11T23:39:16.961Z,97.41
2023-01-11T23:42:03.319Z,97.17
2023-01-11T23:44:30.940Z,96.98
2023-01-11T23:47:17.552Z,97.04
2023-01-11T23:49:45.596Z,97.72
2023-01-11T23:52:14.037Z,97.63
2023-01-11T23:54:41.764Z,97.18
2023-01-11T23:57:12.288Z,97.69
2023-01-11T23:59:41.265Z,97.95
